Aviation Digital Data Service (ADDS)

Output produced by METARs form (0208 UTC 22 April 2019)
found at http://www.aviationweather.gov/metar/data/
 
Forecast for: LEMO (MORON (SP-USAFB), ES)
Text: TAF LEMO 212300Z 2200/2209 VRB03KT CAVOK
Forecast period: 0000 to 0900 UTC 22 April 2019
Forecast type: FROM: standard forecast or significant change
Winds: variable direction winds at 3 MPH (3 knots; 1.5 m/s)
Visibility: 6 or more miles 10+ km)
Ceiling: unknown
Clouds: missing
Weather: NSW  (no significant weather)